Welcome to my new website - This page is under development

Bauang Weathercam more information Bauang Weathercam


My webcam 2 more information My webcam 2


Thunder radar more information blitzortung!


Rain radar more information rain snow radar


Visit our other weather sites:

Live CameraLivecam

EarthCamLivecam



Nearby METAR Reports

   
RPLC - Angeles/Pampanga, Philippines
Distance from station: S 165 km
Updated: 17-07-2019 02:00
Light Rain, Overcast  
Light Rain, Overcast  
   Wind: ESE 1 m/s
Wind: ESE 1 m/s
Temperature: 24°C
Dew Point: 24°C
Humidity: 100%
Barometer: 1002 hPa
Clouds: Overcast
Visibility: 4 km
Cloud details: Partly Cloudy 609.6 m,
Overcast 3048 m
RPLC 161800Z 11002KT 4000 -RA SCT020 OVC100 24/24 Q1002 RMK A2959
RPLI - Laoag Intl(Ph-Ar, Philippines
Distance from station: N 172 km
Updated: 16-07-2019 23:29
NOT Current
Light Thunderstorm, Rain, Overcast  
Light Thunderstorm, Rain, Overcast  
   Wind: SE 5.7 m/s
Wind: SE 5.7 m/s
Temperature: 24°C
Dew Point: 24°C
Humidity: 100%
Barometer: 1000 hPa
Clouds: Overcast
Visibility: 4 km
Cloud details: Partly Cloudy 518.2 m,
Partly Cloudy 548.6 m,
Overcast 2133.6 m
RPLI 161529Z 13011KT 110V170 4000 -TSRA SCT017CB SCT018 OVC070 24/24 Q1000 RMK A2953 CB SW-N
RPLB - Olongapo/Subic, Philippines
Distance from station: S 203 km
Updated: 17-07-2019 02:00
Light Rain, Overcast  
Light Rain, Overcast  
   Wind: SW 6.2 m/s
Wind: SW 6.2 m/s
Temperature: 26°C
Dew Point: 25°C
Humidity: 94%
Barometer: 1002 hPa
Clouds: Overcast
Visibility: 9 km
Cloud details: Partly Cloudy 548.6 m,
Overcast 2133.6 m
RPLB 161800Z 22012KT 9000 -RA SCT018 OVC070 26/25 Q1002 RMK A2959
RPLL - Ninoy Aquino Int, Philippines
Distance from station: SSE 246 km
Updated: 17-07-2019 02:00
Light Rain, Overcast  
Light Rain, Overcast  
   Wind: WSW 5.1 m/s
Wind: WSW 5.1 m/s
Temperature: 25°C
Dew Point: 24°C
Humidity: 94%
Barometer: 1001 hPa
Clouds: Overcast
Visibility: 8 km
Cloud details: 609.6 m,
Overcast 2438.4 m
RPLL 161800Z 24010KT 8000 -RA ST020 OVC080 25/24 Q1001 NOSIG RMK A2956
RPMR - Romblon/Tablas I, Philippines
Distance from station: SSE 498 km
Updated: 16-07-2019 17:00
NOT Current
Nearby Showers, Mostly Cloudy  
Nearby Showers, Mostly Cloudy  
   Wind: South 2.1 m/s
Wind: South 2.1 m/s
Temperature: 27°C
Heat Index: 29°C
Dew Point: 23°C
Humidity: 79%
Barometer: 1009 hPa
Clouds: Mostly Cloudy
Visibility: More than 10 km
Cloud details: Few Clouds 548.6 m,
Mostly Cloudy 2438.4 m,
Mostly Cloudy 7620 m
RPMR 160900Z 18004KT 9999 VCSH FEW018 BKN080 BKN250 27/23 Q1009 NOSIG RM A2980 VCSH SE SW QDS
RPVP - Puerto Princesa, Philippines
Distance from station: SSW 778 km
Updated: 17-07-2019 02:00
Overcast  
Overcast  
   Wind: WSW 2.1 m/s
Wind: WSW 2.1 m/s
Clouds: Overcast
Visibility: More than 10 km
Cloud details: Few Clouds 579.1 m,
Overcast 2438.4 m
RPVP 161800Z 25004KT 9999 FEW019 OVC080 225/23 Q1005 RMK A2968
RPVM - Mactan-Cebu, Philippines
Distance from station: SSE 800 km
Updated: 17-07-2019 02:00
  
  
   Wind: Calm
Wind: Calm
Visibility: 24 km
RPVM 161800Z 24017TK 9999 FEW020 OVC090 26/22 Q1006 RMK A2971
RPMZ - Zamboanga (civ/A, Philippines
Distance from station: S 1090 km
Updated: 17-07-2019 02:00
Mostly Cloudy  
Mostly Cloudy  
   Wind: NW 1.5 m/s
Wind: NW 1.5 m/s
Temperature: 26°C
Dew Point: 23°C
Humidity: 84%
Barometer: 1008 hPa
Clouds: Mostly Cloudy
Visibility: More than 10 km
Cloud details: Few Clouds 518.2 m,
Mostly Cloudy 2743.2 m
RPMZ 161800Z 31003KT 9999 FEW017 BKN090 26/23 Q1008 RMK A2977
RPMD - Davao/Francisco, Philippines
Distance from station: SSE 1198 km
Updated: 17-07-2019 02:00
Overcast  
Overcast  
   Wind: SSW 5.1 m/s
Wind: SSW 5.1 m/s
Temperature: 27°C
Heat Index: 30°C
Dew Point: 24°C
Humidity: 84%
Barometer: 1008 hPa
Clouds: Overcast
Visibility: More than 10 km
Cloud details: Few Clouds 487.7 m,
Overcast 8839.2 m
RPMD 161800Z 20010KT 9999 FEW016 OVC290 27/24 Q1008 RMK A2977

Script developed by  Saratoga-weather.org Adapted for the template by  Weerstation Leuven

You find our weather info also at:

WeatherCloud

Weather Underground

HAMweather, WeatherForYou, PWS Weather

Philippine Atmospheric, Geophysical and Astronomical Services Administration